Ryuoh Maru No.2 — JM5900 — position and weather

sailwx.info

Track history (hours):
 
Tides and Currents Weather Stations Pressure Air Temp Water Temp Dewpoint Dewpoint Depression Visibility Wind Speed Wind Dir Waves Ship Positions

Ryuoh Maru No.2

Last reported at 2014-Dec-07 09:09 UTC. Time now 2014-Dec-18 04:10 UTC.
Position N 35°11' E 139°46'.
Warning: this ship's position is 10 days out of date.

Length 80 m.

Type: Tanker. MMSI: 431401218.

Date/timePositionNaut miles runAvg speedWind from/ knotsBaromVisibWave heightAir tempDewpointWater temp
2014-Dec-07 09:09N 35°11' E 139°46'610.4
2014-Dec-07 08:33N 35°17' E 139°45'8 8.2
2014-Dec-07 07:33N 35°25' E 139°46'5 5.0
2014-Dec-07 06:33N 35°22' E 139°51'0 0.0
2014-Dec-07 05:30N 35°22' E 139°51'0 0.0
2014-Dec-07 04:09N 35°22' E 139°51'0 0.0
2014-Dec-07 03:33N 35°22' E 139°51'0 0.0
2014-Dec-07 02:33N 35°22' E 139°51'3 2.5
2014-Dec-07 01:33N 35°23' E 139°48'7 7.5
2014-Dec-07 00:33N 35°16' E 139°47'1410.8
2014-Dec-06 23:18N 35°02' E 139°44'  
Track history (hours):
 
Tides and Currents Weather Stations Pressure Air Temp Water Temp Dewpoint Dewpoint Depression Visibility Wind Speed Wind Dir Waves Ship Positions

Ryuoh Maru No.2

Last reported at 2014-Dec-07 09:09 UTC. Time now 2014-Dec-18 04:10 UTC.
Position N 35°11' E 139°46'.
Warning: this ship's position is 10 days out of date.

Length 80 m.

Type: Tanker. MMSI: 431401218.

Date/timePositionNaut miles runAvg speedWind from/ knotsBaromVisibWave heightAir tempDewpointWater temp
2014-Dec-07 09:09N 35°11' E 139°46'610.4
2014-Dec-07 08:33N 35°17' E 139°45'8 8.2
2014-Dec-07 07:33N 35°25' E 139°46'5 5.0
2014-Dec-07 06:33N 35°22' E 139°51'0 0.0
2014-Dec-07 05:30N 35°22' E 139°51'0 0.0
2014-Dec-07 04:09N 35°22' E 139°51'0 0.0
2014-Dec-07 03:33N 35°22' E 139°51'0 0.0
2014-Dec-07 02:33N 35°22' E 139°51'3 2.5
2014-Dec-07 01:33N 35°23' E 139°48'7 7.5
2014-Dec-07 00:33N 35°16' E 139°47'1410.8
2014-Dec-06 23:18N 35°02' E 139°44'  

Dump ship's entire track history